LEBB/BIO METAR and TAF weather

Enter ICAO airport designator
Station Type Date Time Source
LEBB METAR 2019/02/21 15:30 UTC NOAA

LEBB 211530Z VRB04KT CAVOK 22/04 Q1025 NOSIG


Station Type Date Time Source
LEBB Decoded METAR 2019/02/21 15:30 UTC NOAA

Bilbao / Sondica, Spain (LEBB) 43-18N 002-56W 37M
Feb 21, 2019 - 10:30 AM EST / 2019.02.21 1530 UTC
Wind: Variable at 5 MPH (4 KT):0
Visibility: greater than 7 mile(s):0
Temperature: 71 F (22 C)
Dew Point: 39 F (4 C)
Relative Humidity: 30%
Pressure (altimeter): 30.27 in. Hg (1025 hPa)
ob: LEBB 211530Z VRB04KT CAVOK 22/04 Q1025 NOSIG
cycle: 15

Station Type Date Time Source
LEBB TAF 2019/02/21 12:27 UTC NOAA

TAF LEBB 211100Z 2112/2212 17009KT CAVOK TX21/2115Z TN06/2206Z


Example: see airport list